Aviation Digital Data Service (ADDS)

Output produced by METARs form (0636 UTC 21 January 2019)
found at http://www.aviationweather.gov/metar/data/
 
METAR text: DRZR 210600Z 04002KT CAVOK 19/M04 Q1015
Conditions at: DRZR (ZINDER , NE) observed 0600 UTC 21 January 2019
Temperature: 19.0°C (66°F)
Dewpoint: -4.0°C (25°F) [RH = 21%]
Pressure (altimeter): 29.97 inches Hg (1015.0 mb)
Winds: from the NE (40 degrees) at 2 MPH (2 knots; 1.0 m/s)
Visibility: 6 or more miles (10+ km)
Ceiling: ceiling and visibility are OK
Clouds: unknown
Weather: no significant weather observed at this time

METAR text: DRZR 210500Z 0504KT CAVOK 20/M05 Q1015
Conditions at: DRZR (ZINDER , NE) observed 0500 UTC 21 January 2019
Temperature: 20.0°C (68°F)
Dewpoint: -5.0°C (23°F) [RH = 18%]
Pressure (altimeter): 29.97 inches Hg (1015.0 mb)
Winds: missing
Visibility: 6 or more miles (10+ km)
Ceiling: ceiling and visibility are OK
Clouds: unknown
Weather: no significant weather observed at this time

METAR text: DRZR 201800Z 00000KT CAVOK 29/06 Q1014
Conditions at: DRZR (ZINDER , NE) observed 1800 UTC 20 January 2019
Temperature: 29.0°C (84°F)
Dewpoint: 6.0°C (43°F) [RH = 23%]
Pressure (altimeter): 29.94 inches Hg (1014.0 mb)
Winds: calm
Visibility: 6 or more miles (10+ km)
Ceiling: ceiling and visibility are OK
Clouds: unknown
Weather: no significant weather observed at this time

METAR text: DRZR 201700Z 32002KT CAVOK 32/02 Q1013
Conditions at: DRZR (ZINDER , NE) observed 1700 UTC 20 January 2019
Temperature: 32.0°C (90°F)
Dewpoint: 2.0°C (36°F) [RH = 15%]
Pressure (altimeter): 29.91 inches Hg (1013.0 mb)
Winds: from the NW (320 degrees) at 2 MPH (2 knots; 1.0 m/s)
Visibility: 6 or more miles (10+ km)
Ceiling: ceiling and visibility are OK
Clouds: unknown
Weather: no significant weather observed at this time

METAR text: DRZR 201500Z 24002KT CAVOK 35/M04 Q1013
Conditions at: DRZR (ZINDER , NE) observed 1500 UTC 20 January 2019
Temperature: 35.0°C (95°F)
Dewpoint: -4.0°C (25°F) [RH =  8%]
Pressure (altimeter): 29.91 inches Hg (1013.0 mb)
Winds: from the WSW (240 degrees) at 2 MPH (2 knots; 1.0 m/s)
Visibility: 6 or more miles (10+ km)
Ceiling: ceiling and visibility are OK
Clouds: unknown
Weather: no significant weather observed at this time

METAR text: DRZR 201400Z 26006KT CAVOK 34/01 Q1013
Conditions at: DRZR (ZINDER , NE) observed 1400 UTC 20 January 2019
Temperature: 34.0°C (93°F)
Dewpoint: 1.0°C (34°F) [RH = 12%]
Pressure (altimeter): 29.91 inches Hg (1013.0 mb)
Winds: from the W (260 degrees) at 7 MPH (6 knots; 3.1 m/s)
Visibility: 6 or more miles (10+ km)
Ceiling: ceiling and visibility are OK
Clouds: unknown
Weather: no significant weather observed at this time

METAR text: DRZR 201300Z 30002KT CAVOK 34/M03 Q1013
Conditions at: DRZR (ZINDER , NE) observed 1300 UTC 20 January 2019
Temperature: 34.0°C (93°F)
Dewpoint: -3.0°C (27°F) [RH =  9%]
Pressure (altimeter): 29.91 inches Hg (1013.0 mb)
Winds: from the WNW (300 degrees) at 2 MPH (2 knots; 1.0 m/s)
Visibility: 6 or more miles (10+ km)
Ceiling: ceiling and visibility are OK
Clouds: unknown
Weather: no significant weather observed at this time

METAR text: DRZR 201200Z 36002KT CAVOK 33/00 Q1014
Conditions at: DRZR (ZINDER , NE) observed 1200 UTC 20 January 2019
Temperature: 33.0°C (91°F)
Dewpoint: 0.0°C (32°F) [RH = 12%]
Pressure (altimeter): 29.94 inches Hg (1014.0 mb)
Winds: from the N (360 degrees) at 2 MPH (2 knots; 1.0 m/s)
Visibility: 6 or more miles (10+ km)
Ceiling: ceiling and visibility are OK
Clouds: unknown
Weather: no significant weather observed at this time

METAR text: DRZR 201100Z 36006KT CAVOK 30/M01 Q1015
Conditions at: DRZR (ZINDER , NE) observed 1100 UTC 20 January 2019
Temperature: 30.0°C (86°F)
Dewpoint: -1.0°C (30°F) [RH = 13%]
Pressure (altimeter): 29.97 inches Hg (1015.0 mb)
Winds: from the N (360 degrees) at 7 MPH (6 knots; 3.1 m/s)
Visibility: 6 or more miles (10+ km)
Ceiling: ceiling and visibility are OK
Clouds: unknown
Weather: no significant weather observed at this time

METAR text: DRZR 201000Z 02006KT CAVOK 28/M04 Q1016
Conditions at: DRZR (ZINDER , NE) observed 1000 UTC 20 January 2019
Temperature: 28.0°C (82°F)
Dewpoint: -4.0°C (25°F) [RH = 12%]
Pressure (altimeter): 30.00 inches Hg (1016.0 mb)
Winds: from the NNE (20 degrees) at 7 MPH (6 knots; 3.1 m/s)
Visibility: 6 or more miles (10+ km)
Ceiling: ceiling and visibility are OK
Clouds: unknown
Weather: no significant weather observed at this time

METAR text: DRZR 200900Z 02006KT CAVOK 25/M05 Q1017
Conditions at: DRZR (ZINDER , NE) observed 0900 UTC 20 January 2019
Temperature: 25.0°C (77°F)
Dewpoint: -5.0°C (23°F) [RH = 13%]
Pressure (altimeter): 30.03 inches Hg (1017.0 mb)
Winds: from the NNE (20 degrees) at 7 MPH (6 knots; 3.1 m/s)
Visibility: 6 or more miles (10+ km)
Ceiling: ceiling and visibility are OK
Clouds: unknown
Weather: no significant weather observed at this time

METAR text: DRZR 200800Z 36008KT CAVOK 22/M03 Q1016
Conditions at: DRZR (ZINDER , NE) observed 0800 UTC 20 January 2019
Temperature: 22.0°C (72°F)
Dewpoint: -3.0°C (27°F) [RH = 19%]
Pressure (altimeter): 30.00 inches Hg (1016.0 mb)
Winds: from the N (360 degrees) at 9 MPH (8 knots; 4.1 m/s)
Visibility: 6 or more miles (10+ km)
Ceiling: ceiling and visibility are OK
Clouds: unknown
Weather: no significant weather observed at this time

METAR text: DRZR 200700Z 34004KT CAVOK 22/00 Q1015
Conditions at: DRZR (ZINDER , NE) observed 0700 UTC 20 January 2019
Temperature: 22.0°C (72°F)
Dewpoint: 0.0°C (32°F) [RH = 23%]
Pressure (altimeter): 29.97 inches Hg (1015.0 mb)
Winds: from the NNW (340 degrees) at 5 MPH (4 knots; 2.1 m/s)
Visibility: 6 or more miles (10+ km)
Ceiling: ceiling and visibility are OK
Clouds: unknown
Weather: no significant weather observed at this time

METAR text: DRZR 200600Z 34002KT CAVOK 20/01 Q1013
Conditions at: DRZR (ZINDER , NE) observed 0600 UTC 20 January 2019
Temperature: 20.0°C (68°F)
Dewpoint: 1.0°C (34°F) [RH = 28%]
Pressure (altimeter): 29.91 inches Hg (1013.0 mb)
Winds: from the NNW (340 degrees) at 2 MPH (2 knots; 1.0 m/s)
Visibility: 6 or more miles (10+ km)
Ceiling: ceiling and visibility are OK
Clouds: unknown
Weather: no significant weather observed at this time

Forecast for: DRZR (ZINDER , NE)
Text: TAF DRZR 210500Z 2106/2206 04008KT 8000 NSC
Forecast period: 0600 UTC 21 January 2019 to 0600 UTC 22 January 2019
Forecast type: FROM: standard forecast or significant change
Winds: from the NE (40 degrees) at 9 MPH (8 knots; 4.1 m/s)
Visibility: 5 miles (8 km)
Ceiling: unknown
Clouds: missing
Weather: no significant weather forecast for this period